Hub


Voltar

 INFORMAÇÕES METEOROLÓGICAS

METAR FOR EPWA


ADDS - METARS form results

(0315 UTC 20 April 2019)
Data provider http://aviationweather.gov/metar/data/
 
METAR text: EPWA 200300Z 29002KT CAVOK 06/M01 Q1029 NOSIG
Conditions at: EPWA (WARSAW/OKECIE , PL) observed 0300 UTC 20 April 2019
Temperature: 6.0°C (43°F)
Dewpoint: -1.0°C (30°F) [RH = 61%]
Pressure (altimeter): 30.38 inches Hg (1029.0 mb)
Winds: from the WNW (290 degrees) at 2 MPH (2 knots; 1.0 m/s)
Visibility: 6 or more miles (10+ km)
Ceiling: ceiling and visibility are OK
Clouds: unknown
Weather: no significant weather observed at this time

METAR text: EPWA 200230Z 29003KT CAVOK 05/01 Q1029 NOSIG
Conditions at: EPWA (WARSAW/OKECIE , PL) observed 0230 UTC 20 April 2019
Temperature: 5.0°C (41°F)
Dewpoint: 1.0°C (34°F) [RH = 75%]
Pressure (altimeter): 30.38 inches Hg (1029.0 mb)
Winds: from the WNW (290 degrees) at 3 MPH (3 knots; 1.5 m/s)
Visibility: 6 or more miles (10+ km)
Ceiling: ceiling and visibility are OK
Clouds: unknown
Weather: no significant weather observed at this time

Forecast for: EPWA (WARSAW/OKECIE , PL)
Text: TAF EPWA 200230Z 2003/2103 33005KT CAVOK
Forecast period: 0300 UTC 20 April 2019 to 0300 UTC 21 April 2019
Forecast type: FROM: standard forecast or significant change
Winds: from the NNW (330 degrees) at 6 MPH (5 knots; 2.6 m/s)
Visibility: 6 or more miles 10+ km)
Ceiling: unknown
Clouds: missing
Weather: NSW  (no significant weather)


 MAPA DO AEROPORTO


 INFORMAÇÕES DA PISTA

Pista 11 Tamanho da pista 9186 ft Largura da pista 164 ft
Elevação da pista 361 ft Ranhura da pista 0 ft Proa da pista 115
Pista 29 Tamanho da pista 9186 ft Largura da pista 164 ft
Elevação da pista 344 ft Ranhura da pista 1640 ft Proa da pista 295
Pista 15 Tamanho da pista 12106 ft Largura da pista 197 ft
Elevação da pista 351 ft Ranhura da pista 0 ft Proa da pista 152
Pista 33 Tamanho da pista 12106 ft Largura da pista 197 ft
Elevação da pista 351 ft Ranhura da pista 0 ft Proa da pista 332

 FREQUÊNCIAS DO AEROPORTO

Tipo APP Nome WARSZAWA A Frequência 128.8 MHZ
Tipo ATIS Nome ATIS Frequência 120.45 MHZ
Tipo CLD Nome CLNC DEL Frequência 121.6 MHZ
Tipo DIR Nome WARSZAWA D Frequência 129.375 MHZ
Tipo GND Nome GND Frequência 121.9 MHZ
Tipo TWR Nome TWR Frequência 118.3 MHZ

 AUXÍLIOS DE NAVEGAÇÃO PRÓXIMOS AO AEROPORTO

Tipo VOR-DME Nome Okecie Frequência 113400 KHZ
Tipo NDB Nome Piaseczno Frequência 330 KHZ
Tipo NDB Nome Warszawa Frequência 336 KHZ
Tipo NDB Nome Warszawa Frequência 412 KHZ
Tipo VOR-DME Nome Zaborowek Frequência 114900 KHZ